createdAt,value
2017-12-23T00:02:09.384Z,16.67
2017-12-23T00:04:38.189Z,13.63
2017-12-23T00:07:05.999Z,14.00
2017-12-23T00:09:33.454Z,14.73
2017-12-23T00:12:01.451Z,14.03
2017-12-23T00:14:30.215Z,14.67
2017-12-23T00:16:58.424Z,16.17
2017-12-23T00:19:27.120Z,14.83
2017-12-23T00:21:55.295Z,16.67
2017-12-23T00:24:22.910Z,16.03
2017-12-23T00:26:50.390Z,16.33
2017-12-23T00:29:18.660Z,16.33
2017-12-23T00:31:46.136Z,15.53
2017-12-23T00:37:12.146Z,16.30
2017-12-23T00:39:39.613Z,15.73
2017-12-23T00:42:07.086Z,16.57
2017-12-23T00:44:34.577Z,16.43
2017-12-23T00:47:02.045Z,15.33
2017-12-23T00:49:29.526Z,17.10
2017-12-23T00:51:56.974Z,16.97
2017-12-23T00:54:24.454Z,17.50
2017-12-23T00:56:52.134Z,19.70
2017-12-23T00:59:20.355Z,18.20
2017-12-23T01:01:47.824Z,20.63
2017-12-23T01:04:15.302Z,18.77
2017-12-23T01:06:42.773Z,21.17
2017-12-23T01:09:11.046Z,21.10
2017-12-23T01:11:39.275Z,21.63
2017-12-23T01:14:06.768Z,19.17
2017-12-23T01:16:34.329Z,21.00
2017-12-23T01:19:01.789Z,18.63
2017-12-23T01:21:29.328Z,18.83
2017-12-23T01:23:56.796Z,17.30
2017-12-23T01:26:24.370Z,18.20
2017-12-23T01:28:52.631Z,18.47
2017-12-23T01:31:20.097Z,16.97
2017-12-23T01:33:48.347Z,16.63
2017-12-23T01:36:15.824Z,17.77
2017-12-23T01:38:43.304Z,15.87
2017-12-23T01:41:11.540Z,16.90
2017-12-23T01:43:39.009Z,18.53
2017-12-23T01:46:06.485Z,15.90
2017-12-23T01:48:34.734Z,16.87
2017-12-23T01:51:02.199Z,17.73
2017-12-23T01:53:29.651Z,17.63
2017-12-23T01:55:57.116Z,20.30
2017-12-23T01:58:25.439Z,17.60
2017-12-23T02:00:52.902Z,16.77
2017-12-23T02:03:20.402Z,16.67
2017-12-23T02:05:47.855Z,17.27
2017-12-23T02:08:15.322Z,20.90
2017-12-23T02:10:43.593Z,17.43
2017-12-23T02:13:11.055Z,18.63
2017-12-23T02:15:39.275Z,19.07
2017-12-23T02:18:06.748Z,18.10
2017-12-23T02:20:34.211Z,19.10
2017-12-23T02:23:01.789Z,17.83
2017-12-23T02:25:29.266Z,19.37
2017-12-23T02:27:57.482Z,18.57
2017-12-23T02:30:24.950Z,18.50
2017-12-23T02:32:52.412Z,18.97
2017-12-23T02:35:19.890Z,20.10
2017-12-23T02:37:48.132Z,19.00
2017-12-23T02:40:15.659Z,19.97
2017-12-23T02:42:43.128Z,19.90
2017-12-23T02:45:10.616Z,20.23
2017-12-23T02:47:38.094Z,18.97
2017-12-23T02:50:06.335Z,19.30
2017-12-23T02:52:33.783Z,20.73
2017-12-23T02:55:01.303Z,21.07
2017-12-23T02:57:28.753Z,19.77
2017-12-23T02:59:56.226Z,20.57
2017-12-23T03:02:23.738Z,17.63
2017-12-23T03:04:51.190Z,21.30
2017-12-23T03:07:18.763Z,20.13
2017-12-23T03:09:46.998Z,18.90
2017-12-23T03:12:14.481Z,18.80
2017-12-23T03:14:42.057Z,18.90
2017-12-23T03:17:10.303Z,19.53
2017-12-23T03:19:37.771Z,18.40
2017-12-23T03:22:05.262Z,16.53
2017-12-23T03:24:32.729Z,18.53
2017-12-23T03:27:00.209Z,18.40
2017-12-23T03:29:27.688Z,21.20
2017-12-23T03:31:55.213Z,19.80
2017-12-23T03:34:22.623Z,23.17
2017-12-23T03:36:50.873Z,23.40
2017-12-23T03:39:18.332Z,24.27
2017-12-23T03:41:45.826Z,23.10
2017-12-23T03:44:13.308Z,24.43
2017-12-23T03:46:40.759Z,23.53
2017-12-23T03:49:08.220Z,24.53
2017-12-23T03:51:35.687Z,25.20
2017-12-23T03:54:03.148Z,25.50
2017-12-23T03:56:30.604Z,23.17
2017-12-23T03:58:58.081Z,25.83
2017-12-23T04:01:26.332Z,29.10
2017-12-23T04:03:53.813Z,28.33
2017-12-23T04:06:22.123Z,24.67
2017-12-23T04:08:49.621Z,28.03
2017-12-23T04:11:17.093Z,23.77
2017-12-23T04:13:45.469Z,25.10
2017-12-23T04:16:13.687Z,22.33
2017-12-23T04:18:41.186Z,24.97
2017-12-23T04:21:08.671Z,25.57
2017-12-23T04:23:36.874Z,23.80
2017-12-23T04:26:04.365Z,25.40
2017-12-23T04:28:31.842Z,23.63
2017-12-23T04:31:00.069Z,26.50
2017-12-23T04:33:27.650Z,21.97
2017-12-23T04:35:55.163Z,24.77
2017-12-23T04:38:22.631Z,21.33
2017-12-23T04:40:50.157Z,23.90
2017-12-23T04:43:18.375Z,21.10
2017-12-23T04:45:45.867Z,20.60
2017-12-23T04:48:13.334Z,22.13
2017-12-23T04:50:41.586Z,22.57
2017-12-23T04:53:09.068Z,20.37
2017-12-23T04:55:36.523Z,20.17
2017-12-23T04:58:04.066Z,23.80
2017-12-23T05:00:32.339Z,21.07
2017-12-23T05:03:00.574Z,19.37
2017-12-23T05:05:28.065Z,19.40
2017-12-23T05:07:55.544Z,18.50
2017-12-23T05:10:23.046Z,24.67
2017-12-23T05:12:50.500Z,20.10
2017-12-23T05:15:17.974Z,23.00
2017-12-23T05:17:45.482Z,21.20
2017-12-23T05:20:12.988Z,22.67
2017-12-23T05:22:40.551Z,20.83
2017-12-23T05:25:08.006Z,18.60
2017-12-23T05:27:35.468Z,23.07
2017-12-23T05:30:03.713Z,24.10
2017-12-23T05:32:31.311Z,21.40
2017-12-23T05:34:58.775Z,21.50
2017-12-23T05:37:27.001Z,19.27
2017-12-23T05:39:54.466Z,18.60
2017-12-23T05:42:21.936Z,19.10
2017-12-23T05:44:50.865Z,20.53
2017-12-23T05:47:18.328Z,22.10
2017-12-23T05:49:45.851Z,19.57
2017-12-23T05:52:14.078Z,20.47
2017-12-23T05:54:41.558Z,21.30
2017-12-23T05:57:09.036Z,17.97
2017-12-23T05:59:37.265Z,20.33
2017-12-23T06:02:04.756Z,17.73
2017-12-23T06:04:32.979Z,19.00
2017-12-23T06:07:00.430Z,17.33
2017-12-23T06:09:27.905Z,19.50
2017-12-23T06:11:55.381Z,18.33
2017-12-23T06:14:22.855Z,17.40
2017-12-23T06:16:51.100Z,16.17
2017-12-23T06:19:18.542Z,17.30
2017-12-23T06:21:46.097Z,15.50
2017-12-23T06:24:13.553Z,17.80
2017-12-23T06:26:41.140Z,17.40
2017-12-23T06:29:08.701Z,17.33
2017-12-23T06:31:36.270Z,18.43
2017-12-23T06:34:03.746Z,17.73
2017-12-23T06:36:31.190Z,17.00
2017-12-23T06:38:59.422Z,17.37
2017-12-23T06:41:26.892Z,18.83
2017-12-23T06:43:54.504Z,15.97
2017-12-23T06:46:21.964Z,16.83
2017-12-23T06:48:49.443Z,16.53
2017-12-23T06:51:17.028Z,15.70
2017-12-23T06:53:44.585Z,16.70
2017-12-23T06:56:12.134Z,15.37
2017-12-23T06:58:39.626Z,18.27
2017-12-23T07:01:07.852Z,19.70
2017-12-23T07:03:35.330Z,16.70
2017-12-23T07:06:02.815Z,18.17
2017-12-23T07:08:30.294Z,18.27
2017-12-23T07:10:57.747Z,17.17
2017-12-23T07:13:25.214Z,18.30
2017-12-23T07:15:52.803Z,17.27
2017-12-23T07:18:20.384Z,17.10
2017-12-23T07:20:48.631Z,18.03
2017-12-23T07:23:16.098Z,17.33
2017-12-23T07:25:43.662Z,17.27
2017-12-23T07:28:11.166Z,17.87
2017-12-23T07:30:38.645Z,17.33
2017-12-23T07:33:06.122Z,17.07
2017-12-23T07:35:33.593Z,18.60
2017-12-23T07:38:01.829Z,16.80
2017-12-23T07:40:29.322Z,16.60
2017-12-23T07:42:57.588Z,16.57
2017-12-23T07:45:25.148Z,16.60
2017-12-23T07:47:52.628Z,18.03
2017-12-23T07:50:20.851Z,17.90
2017-12-23T07:52:48.315Z,18.40
2017-12-23T07:55:15.888Z,17.77
2017-12-23T07:57:43.362Z,16.97
2017-12-23T08:00:11.597Z,16.20
2017-12-23T08:02:39.078Z,18.07
2017-12-23T08:05:06.554Z,17.97
2017-12-23T08:07:34.785Z,17.80
2017-12-23T08:10:02.281Z,15.97
2017-12-23T08:12:30.636Z,17.03
2017-12-23T08:14:58.116Z,17.87
2017-12-23T08:17:26.369Z,16.57
2017-12-23T08:19:53.868Z,17.67
2017-12-23T08:22:22.104Z,16.90
2017-12-23T08:24:49.576Z,16.43
2017-12-23T08:27:17.801Z,15.60
2017-12-23T08:29:45.280Z,15.53
2017-12-23T08:32:12.783Z,15.77
2017-12-23T08:34:40.283Z,15.50
2017-12-23T08:37:07.727Z,16.00
2017-12-23T08:39:35.193Z,14.43
2017-12-23T08:42:02.678Z,14.63
2017-12-23T08:44:30.950Z,15.53
2017-12-23T08:46:59.215Z,16.90
2017-12-23T08:49:26.682Z,17.07
2017-12-23T08:51:54.985Z,15.10
2017-12-23T08:54:22.460Z,14.17
2017-12-23T08:56:49.921Z,13.90
2017-12-23T08:59:17.427Z,13.97
2017-12-23T09:01:45.688Z,13.63
2017-12-23T09:04:13.167Z,15.97
2017-12-23T09:06:41.405Z,13.50
2017-12-23T09:09:08.883Z,12.33
2017-12-23T09:11:36.400Z,13.00
2017-12-23T09:14:03.902Z,12.67
2017-12-23T09:16:32.142Z,13.40
2017-12-23T09:18:59.725Z,13.10
2017-12-23T09:21:27.243Z,11.83
2017-12-23T09:23:54.717Z,12.70
2017-12-23T09:26:22.182Z,13.47
2017-12-23T09:28:49.661Z,12.17
2017-12-23T09:31:17.879Z,12.40
2017-12-23T09:33:45.359Z,11.10
2017-12-23T09:36:12.816Z,12.30
2017-12-23T09:38:40.302Z,11.27
2017-12-23T09:41:08.543Z,14.47
2017-12-23T09:43:36.032Z,11.00
2017-12-23T09:46:04.238Z,10.57
2017-12-23T09:48:31.751Z,12.40
2017-12-23T09:50:59.303Z,18.27
2017-12-23T09:53:26.766Z,14.77
2017-12-23T09:55:54.224Z,10.23
2017-12-23T09:58:21.779Z,10.57
2017-12-23T10:00:49.238Z,8.37
2017-12-23T10:03:16.771Z,8.10
2017-12-23T10:05:44.365Z,8.47
2017-12-23T10:08:12.666Z,8.40
2017-12-23T10:10:40.134Z,7.00
2017-12-23T10:13:07.642Z,7.20
2017-12-23T10:15:35.121Z,6.90
2017-12-23T10:18:02.568Z,9.33
2017-12-23T10:20:30.925Z,7.43
2017-12-23T10:22:58.403Z,8.77
2017-12-23T10:25:26.658Z,9.97
2017-12-23T10:27:54.121Z,10.70
2017-12-23T10:30:22.344Z,10.97
2017-12-23T10:32:49.846Z,11.10
2017-12-23T10:35:17.301Z,10.50
2017-12-23T10:37:45.540Z,10.93
2017-12-23T10:40:13.054Z,9.87
2017-12-23T10:42:40.581Z,10.50
2017-12-23T10:45:08.051Z,10.27
2017-12-23T10:47:36.292Z,12.00
2017-12-23T10:50:03.769Z,10.57
2017-12-23T10:52:31.220Z,9.50
2017-12-23T10:54:58.780Z,11.20
2017-12-23T10:57:26.234Z,12.77
2017-12-23T10:59:53.778Z,10.27
2017-12-23T11:02:21.251Z,9.77
2017-12-23T11:04:48.814Z,10.40
2017-12-23T11:07:16.286Z,10.53
2017-12-23T11:09:44.527Z,10.63
2017-12-23T11:12:12.000Z,10.00
2017-12-23T11:14:40.274Z,10.03
2017-12-23T11:17:07.732Z,10.27
2017-12-23T11:19:35.986Z,8.33
2017-12-23T11:22:03.463Z,8.77
2017-12-23T11:24:30.913Z,9.40
2017-12-23T11:26:58.371Z,9.40
2017-12-23T11:29:26.632Z,9.33
2017-12-23T11:31:54.084Z,9.37
2017-12-23T11:34:21.557Z,9.63
2017-12-23T11:36:49.811Z,8.67
2017-12-23T11:39:17.264Z,9.60
2017-12-23T11:41:44.724Z,8.23
2017-12-23T11:44:12.189Z,9.07
2017-12-23T11:46:39.645Z,8.43
2017-12-23T11:49:07.135Z,9.07
2017-12-23T11:51:34.656Z,8.80
2017-12-23T11:54:02.203Z,7.43
2017-12-23T11:56:29.660Z,7.70
2017-12-23T11:58:57.142Z,7.50
2017-12-23T12:01:25.406Z,8.00
2017-12-23T12:03:52.863Z,8.33
2017-12-23T12:06:20.320Z,8.53
2017-12-23T12:08:48.583Z,8.27
2017-12-23T12:11:16.054Z,8.20
2017-12-23T12:13:44.306Z,8.80
2017-12-23T12:16:11.777Z,6.53
2017-12-23T12:18:39.238Z,7.50
2017-12-23T12:21:07.465Z,6.77
2017-12-23T12:23:34.998Z,6.00
2017-12-23T12:26:02.520Z,6.70
2017-12-23T12:28:29.980Z,6.07
2017-12-23T12:30:58.228Z,6.07
2017-12-23T12:33:25.676Z,6.10
2017-12-23T12:35:53.167Z,6.77
2017-12-23T12:38:20.655Z,6.07
2017-12-23T12:40:48.105Z,6.57
2017-12-23T12:43:15.569Z,4.70
2017-12-23T12:45:43.054Z,6.00
2017-12-23T12:48:10.508Z,6.57
2017-12-23T12:50:37.974Z,4.70
2017-12-23T12:53:05.477Z,5.23
2017-12-23T12:55:33.016Z,5.93
2017-12-23T12:58:01.280Z,6.07
2017-12-23T13:00:28.774Z,4.53
2017-12-23T13:02:56.245Z,5.03
2017-12-23T13:05:23.748Z,4.97
2017-12-23T13:07:51.206Z,4.60
2017-12-23T13:10:18.655Z,5.07
2017-12-23T13:12:46.120Z,4.83
2017-12-23T13:15:13.595Z,4.67
2017-12-23T13:17:41.825Z,4.63
2017-12-23T13:20:09.278Z,4.70
2017-12-23T13:22:36.759Z,5.57
2017-12-23T13:25:04.215Z,5.70
2017-12-23T13:27:31.686Z,4.63
2017-12-23T13:29:59.921Z,7.90
2017-12-23T13:32:27.410Z,5.37
2017-12-23T13:34:55.645Z,5.60
2017-12-23T13:37:23.107Z,5.70
2017-12-23T13:39:50.554Z,5.20
2017-12-23T13:42:18.086Z,5.47
2017-12-23T13:44:45.600Z,6.07
2017-12-23T13:47:13.837Z,6.17
2017-12-23T13:49:41.304Z,5.03
2017-12-23T13:52:08.780Z,5.63
2017-12-23T13:54:36.230Z,4.50
2017-12-23T13:57:03.707Z,5.57
2017-12-23T13:59:31.931Z,5.67
2017-12-23T14:01:59.416Z,4.70
2017-12-23T14:04:27.003Z,5.97
2017-12-23T14:06:55.232Z,5.40
2017-12-23T14:09:22.684Z,8.40
2017-12-23T14:11:50.168Z,6.40
2017-12-23T14:14:17.655Z,5.80
2017-12-23T14:16:45.866Z,6.20
2017-12-23T14:19:13.474Z,6.27
2017-12-23T14:21:41.695Z,8.40
2017-12-23T14:24:09.152Z,6.07
2017-12-23T14:26:36.668Z,5.20
2017-12-23T14:29:15.586Z,5.47
2017-12-23T14:31:43.122Z,4.87
2017-12-23T14:34:10.592Z,5.13
2017-12-23T14:36:38.802Z,4.70
2017-12-23T14:39:06.280Z,5.27
2017-12-23T14:41:33.745Z,5.07
2017-12-23T14:44:01.213Z,5.10
2017-12-23T14:46:28.660Z,5.10
2017-12-23T14:48:56.111Z,5.47
2017-12-23T14:51:23.622Z,6.20
2017-12-23T14:53:51.142Z,4.77
2017-12-23T14:56:18.617Z,6.57
2017-12-23T14:58:46.837Z,5.30
2017-12-23T15:01:14.309Z,5.00
2017-12-23T15:03:41.788Z,5.90
2017-12-23T15:06:10.017Z,6.20
2017-12-23T15:08:37.455Z,5.40
2017-12-23T15:11:04.964Z,5.87
2017-12-23T15:13:32.420Z,6.17
2017-12-23T15:15:59.863Z,7.07
2017-12-23T15:18:27.388Z,6.43
2017-12-23T15:20:54.992Z,5.57
2017-12-23T15:23:22.482Z,6.83
2017-12-23T15:25:49.918Z,5.23
2017-12-23T15:28:18.227Z,6.43
2017-12-23T15:30:45.785Z,5.83
2017-12-23T15:33:14.042Z,6.20
2017-12-23T15:35:42.265Z,9.03
2017-12-23T15:38:09.716Z,6.90
2017-12-23T15:40:37.197Z,6.13
2017-12-23T15:43:04.694Z,6.50
2017-12-23T15:45:32.164Z,5.93
2017-12-23T15:47:59.630Z,6.33
2017-12-23T15:50:27.933Z,7.33
2017-12-23T15:52:56.920Z,6.00
2017-12-23T15:55:24.374Z,6.03
2017-12-23T15:57:51.866Z,6.77
2017-12-23T16:00:20.084Z,5.90
2017-12-23T16:02:47.554Z,5.63
2017-12-23T16:05:15.029Z,6.00
2017-12-23T16:07:42.493Z,5.87
2017-12-23T16:10:10.757Z,7.00
2017-12-23T16:12:38.215Z,6.50
2017-12-23T16:15:05.715Z,6.90
2017-12-23T16:17:33.168Z,8.13
2017-12-23T16:20:00.642Z,6.93
2017-12-23T16:22:28.107Z,6.77
2017-12-23T16:24:55.557Z,7.00
2017-12-23T16:27:23.032Z,7.30
2017-12-23T16:29:50.604Z,6.90
2017-12-23T16:32:18.061Z,7.03
2017-12-23T16:34:45.628Z,7.03
2017-12-23T16:37:13.091Z,7.27
2017-12-23T16:39:41.320Z,7.47
2017-12-23T16:42:08.793Z,8.10
2017-12-23T16:44:36.283Z,7.63
2017-12-23T16:47:04.510Z,8.30
2017-12-23T16:49:32.086Z,7.83
2017-12-23T16:51:59.540Z,8.30
2017-12-23T16:54:27.012Z,8.03
2017-12-23T16:56:55.239Z,9.33
2017-12-23T16:59:22.747Z,9.50
2017-12-23T17:01:50.986Z,9.40
2017-12-23T17:04:18.440Z,10.40
2017-12-23T17:06:45.898Z,9.07
2017-12-23T17:09:13.362Z,8.53
2017-12-23T17:11:40.852Z,7.80
2017-12-23T17:14:09.077Z,7.67
2017-12-23T17:16:36.533Z,8.50
2017-12-23T17:19:04.069Z,7.93
2017-12-23T17:21:32.238Z,8.80
2017-12-23T17:23:59.695Z,8.07
2017-12-23T17:26:27.186Z,9.20
2017-12-23T17:29:06.494Z,8.77
2017-12-23T17:31:33.982Z,9.43
2017-12-23T17:34:01.464Z,9.70
2017-12-23T17:36:29.795Z,9.27
2017-12-23T17:38:57.268Z,8.97
2017-12-23T17:41:24.743Z,10.17
2017-12-23T17:43:52.958Z,10.60
2017-12-23T17:46:20.423Z,9.53
2017-12-23T17:48:47.934Z,9.57
2017-12-23T17:51:15.357Z,9.60
2017-12-23T17:53:42.842Z,9.53
2017-12-23T17:56:11.106Z,9.93
2017-12-23T17:58:38.672Z,10.80
2017-12-23T18:01:06.159Z,12.20
2017-12-23T18:03:33.614Z,12.20
2017-12-23T18:06:01.063Z,10.33
2017-12-23T18:08:28.566Z,10.60
2017-12-23T18:10:56.015Z,9.23
2017-12-23T18:13:23.481Z,11.07
2017-12-23T18:15:50.999Z,10.43
2017-12-23T18:18:18.466Z,11.10
2017-12-23T18:20:45.933Z,10.83
2017-12-23T18:23:13.467Z,10.20
2017-12-23T18:25:40.926Z,11.80
2017-12-23T18:28:08.377Z,12.13
2017-12-23T18:30:35.862Z,10.80
2017-12-23T18:33:03.355Z,12.23
2017-12-23T18:35:31.618Z,12.07
2017-12-23T18:37:59.197Z,12.03
2017-12-23T18:40:27.419Z,11.77
2017-12-23T18:42:54.894Z,12.70
2017-12-23T18:45:22.383Z,12.77
2017-12-23T18:47:50.595Z,11.73
2017-12-23T18:50:18.048Z,12.20
2017-12-23T18:52:45.542Z,11.00
2017-12-23T18:55:13.293Z,12.13
2017-12-23T18:57:40.789Z,11.47
2017-12-23T19:00:09.016Z,11.67
2017-12-23T19:02:36.510Z,13.77
2017-12-23T19:05:04.737Z,12.53
2017-12-23T19:07:32.223Z,13.33
2017-12-23T19:09:59.683Z,11.77
2017-12-23T19:12:27.364Z,12.50
2017-12-23T19:14:55.646Z,13.20
2017-12-23T19:17:23.874Z,14.30
2017-12-23T19:19:51.333Z,11.77
2017-12-23T19:22:18.810Z,13.17
2017-12-23T19:24:47.083Z,12.80
2017-12-23T19:27:14.534Z,13.20
2017-12-23T19:29:42.061Z,12.27
2017-12-23T19:32:09.539Z,11.40
2017-12-23T19:34:37.023Z,13.83
2017-12-23T19:37:05.242Z,11.40
2017-12-23T19:39:32.773Z,10.30
2017-12-23T19:42:00.238Z,10.13
2017-12-23T19:44:27.678Z,9.90
2017-12-23T19:46:55.133Z,9.20
2017-12-23T19:49:22.657Z,9.63
2017-12-23T19:51:50.130Z,10.37
2017-12-23T19:54:18.353Z,9.63
2017-12-23T19:56:45.842Z,10.60
2017-12-23T19:59:13.310Z,14.27
2017-12-23T20:01:41.574Z,12.00
2017-12-23T20:04:09.817Z,13.03
2017-12-23T20:06:37.628Z,14.00
2017-12-23T20:09:05.874Z,15.37
2017-12-23T20:11:33.353Z,14.83
2017-12-23T20:14:01.591Z,16.00
2017-12-23T20:16:29.065Z,14.20
2017-12-23T20:18:56.517Z,15.53
2017-12-23T20:21:23.989Z,14.57
2017-12-23T20:23:52.220Z,14.27
2017-12-23T20:26:19.709Z,15.70
2017-12-23T20:28:47.256Z,14.27
2017-12-23T20:31:14.704Z,15.60
2017-12-23T20:33:42.194Z,16.80
2017-12-23T20:36:10.444Z,15.90
2017-12-23T20:38:37.908Z,16.40
2017-12-23T20:41:05.478Z,17.63
2017-12-23T20:43:33.716Z,15.20
2017-12-23T20:46:01.191Z,18.47
2017-12-23T20:48:28.640Z,17.03
2017-12-23T20:50:56.117Z,17.13
2017-12-23T20:53:24.348Z,17.57
2017-12-23T20:55:51.841Z,16.13
2017-12-23T20:58:19.395Z,16.80
2017-12-23T21:00:46.859Z,16.27
2017-12-23T21:03:15.095Z,18.10
2017-12-23T21:05:42.626Z,16.23
2017-12-23T21:08:10.123Z,17.23
2017-12-23T21:10:37.594Z,18.03
2017-12-23T21:13:05.070Z,18.10
2017-12-23T21:15:33.323Z,15.77
2017-12-23T21:18:00.789Z,17.70
2017-12-23T21:20:28.322Z,16.80
2017-12-23T21:22:55.789Z,16.57
2017-12-23T21:25:23.302Z,18.27
2017-12-23T21:27:50.761Z,18.10
2017-12-23T21:30:18.210Z,19.17
2017-12-23T21:32:45.723Z,19.27
2017-12-23T21:35:13.305Z,17.83
2017-12-23T21:37:41.549Z,17.83
2017-12-23T21:40:09.118Z,19.00
2017-12-23T21:42:37.380Z,18.17
2017-12-23T21:45:05.624Z,21.10
2017-12-23T21:47:33.148Z,18.67
2017-12-23T21:50:00.717Z,19.80
2017-12-23T21:52:28.188Z,17.90
2017-12-23T21:54:55.649Z,18.13
2017-12-23T21:57:23.341Z,18.07
2017-12-23T21:59:50.800Z,18.20
2017-12-23T22:02:18.279Z,18.83
2017-12-23T22:04:46.531Z,20.83
2017-12-23T22:07:14.003Z,19.33
2017-12-23T22:09:42.306Z,18.90
2017-12-23T22:12:09.764Z,21.10
2017-12-23T22:14:37.222Z,19.17
2017-12-23T22:17:04.705Z,18.43
2017-12-23T22:19:32.178Z,20.10
2017-12-23T22:21:59.739Z,18.77
2017-12-23T22:24:27.234Z,19.77
2017-12-23T22:26:54.692Z,20.00
2017-12-23T22:29:22.181Z,19.73
2017-12-23T22:31:49.637Z,19.30
2017-12-23T22:34:17.117Z,17.47
2017-12-23T22:36:44.598Z,19.70
2017-12-23T22:39:12.834Z,21.40
2017-12-23T22:41:40.307Z,19.33
2017-12-23T22:44:08.539Z,20.30
2017-12-23T22:46:35.986Z,19.33
2017-12-23T22:49:03.468Z,20.03
2017-12-23T22:51:30.959Z,20.40
2017-12-23T22:53:59.178Z,20.90
2017-12-23T22:56:26.657Z,19.17
2017-12-23T22:58:54.134Z,20.30
2017-12-23T23:01:21.620Z,18.10
2017-12-23T23:03:49.105Z,20.83
2017-12-23T23:06:16.555Z,17.77
2017-12-23T23:08:44.066Z,19.30
2017-12-23T23:11:11.724Z,19.90
2017-12-23T23:13:39.228Z,19.17
2017-12-23T23:16:06.706Z,19.90
2017-12-23T23:18:34.276Z,18.53
2017-12-23T23:21:01.745Z,17.57
2017-12-23T23:23:29.963Z,17.37
2017-12-23T23:25:57.434Z,18.53
2017-12-23T23:28:24.904Z,18.43
2017-12-23T23:30:52.385Z,19.57
2017-12-23T23:33:19.849Z,17.87
2017-12-23T23:35:48.107Z,19.63
2017-12-23T23:38:15.621Z,18.27
2017-12-23T23:40:43.092Z,21.50
2017-12-23T23:43:10.565Z,18.80
2017-12-23T23:45:38.142Z,16.97
2017-12-23T23:48:05.648Z,16.40
2017-12-23T23:50:33.116Z,20.27
2017-12-23T23:53:00.619Z,17.13
2017-12-23T23:55:28.855Z,19.13
2017-12-23T23:57:56.306Z,16.80
